sensor_id;sensor_type;location;lat;lon;timestamp;temperature;humidity
939;DHT22;456;53.584;9.968;2022-08-19T00:01:40;19.60;56.10
939;DHT22;456;53.584;9.968;2022-08-19T00:04:09;19.60;56.10
939;DHT22;456;53.584;9.968;2022-08-19T00:06:38;19.60;56.10
939;DHT22;456;53.584;9.968;2022-08-19T00:09:06;19.60;56.10
939;DHT22;456;53.584;9.968;2022-08-19T00:11:33;19.60;56.10
939;DHT22;456;53.584;9.968;2022-08-19T00:13:59;19.60;56.80
939;DHT22;456;53.584;9.968;2022-08-19T00:16:25;19.60;56.20
939;DHT22;456;53.584;9.968;2022-08-19T00:18:51;19.60;56.20
939;DHT22;456;53.584;9.968;2022-08-19T00:21:17;19.60;56.10
939;DHT22;456;53.584;9.968;2022-08-19T00:23:43;19.60;57.00
939;DHT22;456;53.584;9.968;2022-08-19T00:26:10;19.60;56.50
939;DHT22;456;53.584;9.968;2022-08-19T00:28:36;19.60;56.60
939;DHT22;456;53.584;9.968;2022-08-19T00:31:04;19.60;56.60
939;DHT22;456;53.584;9.968;2022-08-19T00:33:30;19.60;56.60
939;DHT22;456;53.584;9.968;2022-08-19T00:36:00;19.60;56.60
939;DHT22;456;53.584;9.968;2022-08-19T00:38:26;19.60;56.60
939;DHT22;456;53.584;9.968;2022-08-19T00:40:52;19.60;56.60
939;DHT22;456;53.584;9.968;2022-08-19T00:43:23;19.50;56.70
939;DHT22;456;53.584;9.968;2022-08-19T00:45:49;19.60;56.70
939;DHT22;456;53.584;9.968;2022-08-19T00:48:16;19.60;56.70
939;DHT22;456;53.584;9.968;2022-08-19T00:50:43;19.60;56.70
939;DHT22;456;53.584;9.968;2022-08-19T00:53:10;19.60;56.80
939;DHT22;456;53.584;9.968;2022-08-19T00:55:37;19.60;57.00
939;DHT22;456;53.584;9.968;2022-08-19T00:58:08;19.50;56.80
939;DHT22;456;53.584;9.968;2022-08-19T01:00:36;19.50;56.90
939;DHT22;456;53.584;9.968;2022-08-19T01:03:13;19.50;56.90
939;DHT22;456;53.584;9.968;2022-08-19T01:05:41;19.50;57.10
939;DHT22;456;53.584;9.968;2022-08-19T01:08:08;19.50;57.00
939;DHT22;456;53.584;9.968;2022-08-19T01:10:39;19.50;57.20
939;DHT22;456;53.584;9.968;2022-08-19T01:13:06;19.50;57.20
939;DHT22;456;53.584;9.968;2022-08-19T01:15:40;19.50;57.00
939;DHT22;456;53.584;9.968;2022-08-19T01:18:11;19.50;57.30
939;DHT22;456;53.584;9.968;2022-08-19T01:20:37;19.50;57.10
939;DHT22;456;53.584;9.968;2022-08-19T01:23:04;19.50;57.20
939;DHT22;456;53.584;9.968;2022-08-19T01:25:35;19.50;57.20
939;DHT22;456;53.584;9.968;2022-08-19T01:28:02;19.50;57.20
939;DHT22;456;53.584;9.968;2022-08-19T01:30:33;19.50;57.20
939;DHT22;456;53.584;9.968;2022-08-19T01:32:59;19.50;57.30
939;DHT22;456;53.584;9.968;2022-08-19T01:35:26;19.50;57.30
939;DHT22;456;53.584;9.968;2022-08-19T01:37:57;19.50;57.30
939;DHT22;456;53.584;9.968;2022-08-19T01:40:27;19.50;57.40
939;DHT22;456;53.584;9.968;2022-08-19T01:42:54;19.50;57.30
939;DHT22;456;53.584;9.968;2022-08-19T01:45:22;19.50;57.30
939;DHT22;456;53.584;9.968;2022-08-19T01:47:48;19.50;57.50
939;DHT22;456;53.584;9.968;2022-08-19T01:50:14;19.50;57.50
939;DHT22;456;53.584;9.968;2022-08-19T01:52:42;19.50;57.40
939;DHT22;456;53.584;9.968;2022-08-19T01:55:11;19.50;57.40
939;DHT22;456;53.584;9.968;2022-08-19T01:57:38;19.50;57.60
939;DHT22;456;53.584;9.968;2022-08-19T02:00:09;19.50;57.40
939;DHT22;456;53.584;9.968;2022-08-19T02:02:35;19.50;57.40
939;DHT22;456;53.584;9.968;2022-08-19T02:05:01;19.50;57.60
939;DHT22;456;53.584;9.968;2022-08-19T02:07:27;19.50;57.70
939;DHT22;456;53.584;9.968;2022-08-19T02:09:54;19.50;57.60
939;DHT22;456;53.584;9.968;2022-08-19T02:12:20;19.50;57.60
939;DHT22;456;53.584;9.968;2022-08-19T02:14:46;19.50;57.60
939;DHT22;456;53.584;9.968;2022-08-19T02:17:12;19.50;57.70
939;DHT22;456;53.584;9.968;2022-08-19T02:19:38;19.50;57.60
939;DHT22;456;53.584;9.968;2022-08-19T02:22:04;19.50;57.50
939;DHT22;456;53.584;9.968;2022-08-19T02:24:31;19.50;57.70
939;DHT22;456;53.584;9.968;2022-08-19T02:26:56;19.40;57.60
939;DHT22;456;53.584;9.968;2022-08-19T02:29:24;19.50;57.80
939;DHT22;456;53.584;9.968;2022-08-19T02:31:49;19.50;57.70
939;DHT22;456;53.584;9.968;2022-08-19T02:34:16;19.50;57.70
939;DHT22;456;53.584;9.968;2022-08-19T02:36:41;19.50;57.80
939;DHT22;456;53.584;9.968;2022-08-19T02:39:07;19.50;57.80
939;DHT22;456;53.584;9.968;2022-08-19T02:41:33;19.40;57.80
939;DHT22;456;53.584;9.968;2022-08-19T02:44:00;19.50;57.90
939;DHT22;456;53.584;9.968;2022-08-19T02:46:29;19.50;57.80
939;DHT22;456;53.584;9.968;2022-08-19T02:48:59;19.40;58.30
939;DHT22;456;53.584;9.968;2022-08-19T02:51:45;19.40;57.90
939;DHT22;456;53.584;9.968;2022-08-19T02:54:12;19.50;58.00
939;DHT22;456;53.584;9.968;2022-08-19T02:56:40;19.50;57.90
939;DHT22;456;53.584;9.968;2022-08-19T02:59:06;19.40;58.00
939;DHT22;456;53.584;9.968;2022-08-19T03:01:38;19.40;58.10
939;DHT22;456;53.584;9.968;2022-08-19T03:04:06;19.40;58.00
939;DHT22;456;53.584;9.968;2022-08-19T03:06:37;19.40;58.10
939;DHT22;456;53.584;9.968;2022-08-19T03:09:03;19.40;58.00
939;DHT22;456;53.584;9.968;2022-08-19T03:11:31;19.40;58.00
939;DHT22;456;53.584;9.968;2022-08-19T03:13:58;19.40;58.10
939;DHT22;456;53.584;9.968;2022-08-19T03:16:34;19.40;58.10
939;DHT22;456;53.584;9.968;2022-08-19T03:19:01;19.40;58.10
939;DHT22;456;53.584;9.968;2022-08-19T03:21:30;19.40;58.20
939;DHT22;456;53.584;9.968;2022-08-19T03:23:59;19.40;58.20
939;DHT22;456;53.584;9.968;2022-08-19T03:26:25;19.40;58.30
939;DHT22;456;53.584;9.968;2022-08-19T03:28:51;19.40;58.30
939;DHT22;456;53.584;9.968;2022-08-19T03:31:19;19.40;58.30
939;DHT22;456;53.584;9.968;2022-08-19T03:33:45;19.40;58.30
939;DHT22;456;53.584;9.968;2022-08-19T03:36:17;19.40;58.40
939;DHT22;456;53.584;9.968;2022-08-19T03:38:45;19.40;58.40
939;DHT22;456;53.584;9.968;2022-08-19T03:41:15;19.40;58.40
939;DHT22;456;53.584;9.968;2022-08-19T03:43:43;19.40;59.10
939;DHT22;456;53.584;9.968;2022-08-19T03:46:14;19.40;58.50
939;DHT22;456;53.584;9.968;2022-08-19T03:48:42;19.40;58.60
939;DHT22;456;53.584;9.968;2022-08-19T03:51:18;19.40;58.50
939;DHT22;456;53.584;9.968;2022-08-19T03:53:45;19.40;58.40
939;DHT22;456;53.584;9.968;2022-08-19T03:56:11;19.40;58.60
939;DHT22;456;53.584;9.968;2022-08-19T03:58:38;19.40;58.70
939;DHT22;456;53.584;9.968;2022-08-19T04:01:08;19.40;58.80
939;DHT22;456;53.584;9.968;2022-08-19T04:03:34;19.40;58.70
939;DHT22;456;53.584;9.968;2022-08-19T04:06:23;19.40;58.70
939;DHT22;456;53.584;9.968;2022-08-19T04:08:51;19.40;58.90
939;DHT22;456;53.584;9.968;2022-08-19T04:11:22;19.40;58.70
939;DHT22;456;53.584;9.968;2022-08-19T04:13:49;19.40;59.00
939;DHT22;456;53.584;9.968;2022-08-19T04:16:17;19.40;58.90
939;DHT22;456;53.584;9.968;2022-08-19T04:18:43;19.40;59.50
939;DHT22;456;53.584;9.968;2022-08-19T04:21:16;19.40;58.90
939;DHT22;456;53.584;9.968;2022-08-19T04:23:41;19.40;58.80
939;DHT22;456;53.584;9.968;2022-08-19T04:26:12;19.40;58.90
939;DHT22;456;53.584;9.968;2022-08-19T04:28:39;19.40;58.80
939;DHT22;456;53.584;9.968;2022-08-19T04:31:05;19.40;59.00
939;DHT22;456;53.584;9.968;2022-08-19T04:33:30;19.40;58.90
939;DHT22;456;53.584;9.968;2022-08-19T04:35:56;19.40;59.00
939;DHT22;456;53.584;9.968;2022-08-19T04:38:23;19.40;59.00
939;DHT22;456;53.584;9.968;2022-08-19T04:40:51;19.40;59.00
939;DHT22;456;53.584;9.968;2022-08-19T04:43:37;19.40;59.00
939;DHT22;456;53.584;9.968;2022-08-19T04:46:08;19.40;58.90
939;DHT22;456;53.584;9.968;2022-08-19T04:48:34;19.40;58.90
939;DHT22;456;53.584;9.968;2022-08-19T04:51:01;19.40;59.00
939;DHT22;456;53.584;9.968;2022-08-19T04:53:33;19.40;59.00
939;DHT22;456;53.584;9.968;2022-08-19T04:56:07;19.40;59.10
939;DHT22;456;53.584;9.968;2022-08-19T04:58:34;19.40;59.00
939;DHT22;456;53.584;9.968;2022-08-19T05:01:00;19.40;58.90
939;DHT22;456;53.584;9.968;2022-08-19T05:03:26;19.40;59.00
939;DHT22;456;53.584;9.968;2022-08-19T05:05:52;19.40;59.00
939;DHT22;456;53.584;9.968;2022-08-19T05:08:20;19.40;59.10
939;DHT22;456;53.584;9.968;2022-08-19T05:10:48;19.40;59.00
939;DHT22;456;53.584;9.968;2022-08-19T05:13:15;19.40;59.00
939;DHT22;456;53.584;9.968;2022-08-19T05:15:42;19.40;58.90
939;DHT22;456;53.584;9.968;2022-08-19T05:18:08;19.40;59.00
939;DHT22;456;53.584;9.968;2022-08-19T05:20:52;19.40;59.20
939;DHT22;456;53.584;9.968;2022-08-19T05:23:36;19.40;59.00
939;DHT22;456;53.584;9.968;2022-08-19T05:26:02;19.40;59.20
939;DHT22;456;53.584;9.968;2022-08-19T05:28:28;19.40;59.10
939;DHT22;456;53.584;9.968;2022-08-19T05:30:53;19.40;59.10
939;DHT22;456;53.584;9.968;2022-08-19T05:33:21;19.40;59.90
939;DHT22;456;53.584;9.968;2022-08-19T05:35:48;19.40;59.40
939;DHT22;456;53.584;9.968;2022-08-19T05:38:15;19.40;59.40
939;DHT22;456;53.584;9.968;2022-08-19T05:40:41;19.40;59.20
939;DHT22;456;53.584;9.968;2022-08-19T05:43:07;19.40;59.20
939;DHT22;456;53.584;9.968;2022-08-19T05:45:38;19.40;59.30
939;DHT22;456;53.584;9.968;2022-08-19T05:48:04;19.40;59.20
939;DHT22;456;53.584;9.968;2022-08-19T05:50:30;19.40;59.20
939;DHT22;456;53.584;9.968;2022-08-19T05:52:56;19.40;59.30
939;DHT22;456;53.584;9.968;2022-08-19T05:55:21;19.40;59.30
939;DHT22;456;53.584;9.968;2022-08-19T05:57:48;19.40;59.30
939;DHT22;456;53.584;9.968;2022-08-19T06:00:14;19.40;59.10
939;DHT22;456;53.584;9.968;2022-08-19T06:02:41;19.40;59.20
939;DHT22;456;53.584;9.968;2022-08-19T06:05:08;19.40;59.20
939;DHT22;456;53.584;9.968;2022-08-19T06:07:35;19.40;59.30
939;DHT22;456;53.584;9.968;2022-08-19T06:10:02;19.40;59.20
939;DHT22;456;53.584;9.968;2022-08-19T06:12:29;19.40;59.30
939;DHT22;456;53.584;9.968;2022-08-19T06:14:59;19.40;59.30
939;DHT22;456;53.584;9.968;2022-08-19T06:17:24;19.40;59.60
939;DHT22;456;53.584;9.968;2022-08-19T06:19:51;19.40;59.40
939;DHT22;456;53.584;9.968;2022-08-19T06:22:17;19.40;59.30
939;DHT22;456;53.584;9.968;2022-08-19T06:24:43;19.40;59.40
939;DHT22;456;53.584;9.968;2022-08-19T06:27:09;19.40;59.40
939;DHT22;456;53.584;9.968;2022-08-19T06:29:35;19.40;59.40
939;DHT22;456;53.584;9.968;2022-08-19T06:32:02;19.40;59.50
939;DHT22;456;53.584;9.968;2022-08-19T06:34:31;19.40;59.40
939;DHT22;456;53.584;9.968;2022-08-19T06:36:59;19.40;59.40
939;DHT22;456;53.584;9.968;2022-08-19T06:39:32;19.40;59.30
939;DHT22;456;53.584;9.968;2022-08-19T06:42:01;19.40;59.40
939;DHT22;456;53.584;9.968;2022-08-19T06:44:29;19.40;59.30
939;DHT22;456;53.584;9.968;2022-08-19T06:46:56;19.40;59.60
939;DHT22;456;53.584;9.968;2022-08-19T06:49:23;19.40;59.60
939;DHT22;456;53.584;9.968;2022-08-19T06:51:49;19.40;59.50
939;DHT22;456;53.584;9.968;2022-08-19T06:54:16;19.40;59.60
939;DHT22;456;53.584;9.968;2022-08-19T06:56:43;19.40;59.60
939;DHT22;456;53.584;9.968;2022-08-19T06:59:17;19.40;59.50
939;DHT22;456;53.584;9.968;2022-08-19T07:01:47;19.40;59.60
939;DHT22;456;53.584;9.968;2022-08-19T07:04:15;19.40;59.70
939;DHT22;456;53.584;9.968;2022-08-19T07:06:42;19.40;59.70
939;DHT22;456;53.584;9.968;2022-08-19T07:09:12;19.40;59.80
939;DHT22;456;53.584;9.968;2022-08-19T07:11:38;19.40;59.80
939;DHT22;456;53.584;9.968;2022-08-19T07:14:04;19.40;59.90
939;DHT22;456;53.584;9.968;2022-08-19T07:16:30;19.40;60.00
939;DHT22;456;53.584;9.968;2022-08-19T07:18:56;19.40;59.90
939;DHT22;456;53.584;9.968;2022-08-19T07:21:25;19.40;60.20
939;DHT22;456;53.584;9.968;2022-08-19T07:23:55;19.40;60.10
939;DHT22;456;53.584;9.968;2022-08-19T07:26:29;19.40;60.20
939;DHT22;456;53.584;9.968;2022-08-19T07:28:56;19.40;60.20
939;DHT22;456;53.584;9.968;2022-08-19T07:31:25;19.40;60.20
939;DHT22;456;53.584;9.968;2022-08-19T07:33:52;19.40;60.20
939;DHT22;456;53.584;9.968;2022-08-19T07:36:22;19.40;60.20
939;DHT22;456;53.584;9.968;2022-08-19T07:38:49;19.40;60.20
939;DHT22;456;53.584;9.968;2022-08-19T07:41:22;19.40;60.20
939;DHT22;456;53.584;9.968;2022-08-19T07:43:48;19.40;60.20
939;DHT22;456;53.584;9.968;2022-08-19T07:46:15;19.40;59.80
939;DHT22;456;53.584;9.968;2022-08-19T07:48:43;19.40;60.20
939;DHT22;456;53.584;9.968;2022-08-19T07:51:16;19.40;60.20
939;DHT22;456;53.584;9.968;2022-08-19T07:53:43;19.40;60.20
939;DHT22;456;53.584;9.968;2022-08-19T07:56:11;19.40;60.20
939;DHT22;456;53.584;9.968;2022-08-19T07:58:40;19.40;60.30
939;DHT22;456;53.584;9.968;2022-08-19T08:01:08;19.40;60.20
939;DHT22;456;53.584;9.968;2022-08-19T08:03:36;19.40;60.20
939;DHT22;456;53.584;9.968;2022-08-19T08:06:21;19.40;60.20
939;DHT22;456;53.584;9.968;2022-08-19T08:09:06;19.40;60.20
939;DHT22;456;53.584;9.968;2022-08-19T08:11:45;19.40;60.20
939;DHT22;456;53.584;9.968;2022-08-19T08:14:18;19.40;60.30
939;DHT22;456;53.584;9.968;2022-08-19T08:16:44;19.40;60.30
939;DHT22;456;53.584;9.968;2022-08-19T08:19:12;19.40;60.20
939;DHT22;456;53.584;9.968;2022-08-19T08:21:40;19.40;60.20
939;DHT22;456;53.584;9.968;2022-08-19T08:24:06;19.40;60.20
939;DHT22;456;53.584;9.968;2022-08-19T08:26:32;19.40;60.20
939;DHT22;456;53.584;9.968;2022-08-19T08:28:57;19.40;60.30
939;DHT22;456;53.584;9.968;2022-08-19T08:31:23;19.40;60.40
939;DHT22;456;53.584;9.968;2022-08-19T08:33:49;19.40;60.30
939;DHT22;456;53.584;9.968;2022-08-19T08:36:15;19.40;60.30
939;DHT22;456;53.584;9.968;2022-08-19T08:38:43;19.40;60.20
939;DHT22;456;53.584;9.968;2022-08-19T08:44:21;19.40;60.20
939;DHT22;456;53.584;9.968;2022-08-19T08:46:55;19.40;60.20
939;DHT22;456;53.584;9.968;2022-08-19T08:52:33;19.40;60.20
939;DHT22;456;53.584;9.968;2022-08-19T08:55:05;19.40;60.30
939;DHT22;456;53.584;9.968;2022-08-19T09:00:23;19.40;60.40
939;DHT22;456;53.584;9.968;2022-08-19T09:02:50;19.40;60.40
939;DHT22;456;53.584;9.968;2022-08-19T09:05:16;19.40;60.40
939;DHT22;456;53.584;9.968;2022-08-19T09:08:04;19.40;60.20
939;DHT22;456;53.584;9.968;2022-08-19T09:10:38;19.40;60.20
939;DHT22;456;53.584;9.968;2022-08-19T09:15:58;19.40;60.30
939;DHT22;456;53.584;9.968;2022-08-19T09:18:35;19.40;60.20
939;DHT22;456;53.584;9.968;2022-08-19T09:21:03;19.40;60.30
939;DHT22;456;53.584;9.968;2022-08-19T09:23:29;19.40;60.30
939;DHT22;456;53.584;9.968;2022-08-19T09:25:54;19.40;60.30
939;DHT22;456;53.584;9.968;2022-08-19T09:28:20;19.40;60.20
939;DHT22;456;53.584;9.968;2022-08-19T09:30:45;19.40;60.50
939;DHT22;456;53.584;9.968;2022-08-19T09:33:11;19.30;60.60
939;DHT22;456;53.584;9.968;2022-08-19T09:35:37;19.40;60.70
939;DHT22;456;53.584;9.968;2022-08-19T09:38:03;19.40;60.50
939;DHT22;456;53.584;9.968;2022-08-19T09:40:29;19.40;60.60
939;DHT22;456;53.584;9.968;2022-08-19T09:42:55;19.40;60.60
939;DHT22;456;53.584;9.968;2022-08-19T09:45:22;19.40;60.40
939;DHT22;456;53.584;9.968;2022-08-19T09:47:52;19.40;60.60
939;DHT22;456;53.584;9.968;2022-08-19T09:50:18;19.40;60.30
939;DHT22;456;53.584;9.968;2022-08-19T09:52:44;19.40;60.60
939;DHT22;456;53.584;9.968;2022-08-19T09:55:10;19.40;60.20
939;DHT22;456;53.584;9.968;2022-08-19T09:57:37;19.40;60.20
939;DHT22;456;53.584;9.968;2022-08-19T10:00:08;19.40;60.20
939;DHT22;456;53.584;9.968;2022-08-19T10:02:35;19.40;60.20
939;DHT22;456;53.584;9.968;2022-08-19T10:05:00;19.40;60.50
939;DHT22;456;53.584;9.968;2022-08-19T10:07:45;19.40;60.20
939;DHT22;456;53.584;9.968;2022-08-19T10:10:10;19.40;60.20
939;DHT22;456;53.584;9.968;2022-08-19T10:12:37;19.40;60.20
939;DHT22;456;53.584;9.968;2022-08-19T10:15:04;19.40;60.20
939;DHT22;456;53.584;9.968;2022-08-19T10:17:31;19.40;60.20
939;DHT22;456;53.584;9.968;2022-08-19T10:19:59;19.40;60.20
939;DHT22;456;53.584;9.968;2022-08-19T10:22:25;19.40;60.20
939;DHT22;456;53.584;9.968;2022-08-19T10:24:50;19.30;60.10
939;DHT22;456;53.584;9.968;2022-08-19T10:27:17;19.30;60.10
939;DHT22;456;53.584;9.968;2022-08-19T10:29:42;19.40;60.20
939;DHT22;456;53.584;9.968;2022-08-19T10:32:09;19.40;60.20
939;DHT22;456;53.584;9.968;2022-08-19T10:34:37;19.40;60.20
939;DHT22;456;53.584;9.968;2022-08-19T10:37:04;19.40;60.20
939;DHT22;456;53.584;9.968;2022-08-19T10:39:33;19.40;60.20
939;DHT22;456;53.584;9.968;2022-08-19T10:41:58;19.30;60.10
939;DHT22;456;53.584;9.968;2022-08-19T10:44:24;19.40;60.20
939;DHT22;456;53.584;9.968;2022-08-19T10:46:51;19.40;60.20
939;DHT22;456;53.584;9.968;2022-08-19T10:49:17;19.30;60.10
939;DHT22;456;53.584;9.968;2022-08-19T10:51:44;19.40;60.20
939;DHT22;456;53.584;9.968;2022-08-19T10:54:28;19.40;60.20
939;DHT22;456;53.584;9.968;2022-08-19T10:57:13;19.30;60.20
939;DHT22;456;53.584;9.968;2022-08-19T10:59:39;19.30;60.10
939;DHT22;456;53.584;9.968;2022-08-19T11:02:07;19.40;60.20
939;DHT22;456;53.584;9.968;2022-08-19T11:04:36;19.40;60.20
939;DHT22;456;53.584;9.968;2022-08-19T11:07:02;19.30;60.10
939;DHT22;456;53.584;9.968;2022-08-19T11:09:28;19.40;60.20
939;DHT22;456;53.584;9.968;2022-08-19T11:11:54;19.40;60.20
939;DHT22;456;53.584;9.968;2022-08-19T11:14:22;19.40;60.20
939;DHT22;456;53.584;9.968;2022-08-19T11:16:49;19.40;60.20
939;DHT22;456;53.584;9.968;2022-08-19T11:19:16;19.30;60.10
939;DHT22;456;53.584;9.968;2022-08-19T11:21:46;19.40;60.20
939;DHT22;456;53.584;9.968;2022-08-19T11:24:15;19.40;60.20
939;DHT22;456;53.584;9.968;2022-08-19T11:26:42;19.40;60.20
939;DHT22;456;53.584;9.968;2022-08-19T11:29:10;19.40;60.30
939;DHT22;456;53.584;9.968;2022-08-19T11:31:40;19.40;60.20
939;DHT22;456;53.584;9.968;2022-08-19T11:34:07;19.40;60.20
939;DHT22;456;53.584;9.968;2022-08-19T11:36:34;19.30;60.10
939;DHT22;456;53.584;9.968;2022-08-19T11:39:00;19.40;60.20
939;DHT22;456;53.584;9.968;2022-08-19T11:41:27;19.40;60.20
939;DHT22;456;53.584;9.968;2022-08-19T11:43:53;19.40;60.30
939;DHT22;456;53.584;9.968;2022-08-19T11:46:21;19.40;60.20
939;DHT22;456;53.584;9.968;2022-08-19T11:48:48;19.40;60.20
939;DHT22;456;53.584;9.968;2022-08-19T11:51:18;19.40;60.20
939;DHT22;456;53.584;9.968;2022-08-19T11:53:44;19.30;60.10
939;DHT22;456;53.584;9.968;2022-08-19T11:56:10;19.40;60.20
939;DHT22;456;53.584;9.968;2022-08-19T11:58:36;19.40;60.20
939;DHT22;456;53.584;9.968;2022-08-19T12:01:06;19.40;60.10
939;DHT22;456;53.584;9.968;2022-08-19T12:03:32;19.30;60.10
939;DHT22;456;53.584;9.968;2022-08-19T12:06:02;19.40;60.20
939;DHT22;456;53.584;9.968;2022-08-19T12:08:28;19.40;60.20
939;DHT22;456;53.584;9.968;2022-08-19T12:10:54;19.30;60.10
939;DHT22;456;53.584;9.968;2022-08-19T12:13:19;19.30;60.00
939;DHT22;456;53.584;9.968;2022-08-19T12:15:46;19.30;59.80
939;DHT22;456;53.584;9.968;2022-08-19T12:18:12;19.40;59.70
939;DHT22;456;53.584;9.968;2022-08-19T12:20:41;19.40;57.30
939;DHT22;456;53.584;9.968;2022-08-19T12:23:08;19.60;55.60
939;DHT22;456;53.584;9.968;2022-08-19T12:25:36;19.70;56.20
939;DHT22;456;53.584;9.968;2022-08-19T12:28:02;19.80;52.90
939;DHT22;456;53.584;9.968;2022-08-19T12:30:28;19.90;54.70
939;DHT22;456;53.584;9.968;2022-08-19T12:32:55;19.80;53.40
939;DHT22;456;53.584;9.968;2022-08-19T12:35:21;19.90;53.30
939;DHT22;456;53.584;9.968;2022-08-19T12:37:48;19.90;53.50
939;DHT22;456;53.584;9.968;2022-08-19T12:40:15;20.00;51.70
939;DHT22;456;53.584;9.968;2022-08-19T12:42:41;20.00;53.50
939;DHT22;456;53.584;9.968;2022-08-19T12:45:08;20.00;52.00
939;DHT22;456;53.584;9.968;2022-08-19T12:47:34;20.10;52.10
939;DHT22;456;53.584;9.968;2022-08-19T12:50:00;20.00;52.00
939;DHT22;456;53.584;9.968;2022-08-19T12:52:26;20.10;50.70
939;DHT22;456;53.584;9.968;2022-08-19T12:54:54;20.10;52.50
939;DHT22;456;53.584;9.968;2022-08-19T12:57:21;20.10;50.90
939;DHT22;456;53.584;9.968;2022-08-19T12:59:46;20.20;52.20
939;DHT22;456;53.584;9.968;2022-08-19T13:02:12;20.10;51.70
939;DHT22;456;53.584;9.968;2022-08-19T13:04:38;20.20;50.60
939;DHT22;456;53.584;9.968;2022-08-19T13:07:06;20.20;52.20
939;DHT22;456;53.584;9.968;2022-08-19T13:09:33;20.20;50.40
939;DHT22;456;53.584;9.968;2022-08-19T13:11:59;20.20;51.70
939;DHT22;456;53.584;9.968;2022-08-19T13:14:27;20.20;51.10
939;DHT22;456;53.584;9.968;2022-08-19T13:16:54;20.20;50.60
939;DHT22;456;53.584;9.968;2022-08-19T13:19:20;20.20;52.20
939;DHT22;456;53.584;9.968;2022-08-19T13:21:50;20.20;49.90
939;DHT22;456;53.584;9.968;2022-08-19T13:24:15;20.30;51.50
939;DHT22;456;53.584;9.968;2022-08-19T13:26:41;20.20;50.50
939;DHT22;456;53.584;9.968;2022-08-19T13:29:07;20.30;50.60
939;DHT22;456;53.584;9.968;2022-08-19T13:31:51;20.20;51.60
939;DHT22;456;53.584;9.968;2022-08-19T13:34:35;20.20;49.40
939;DHT22;456;53.584;9.968;2022-08-19T13:37:03;20.30;51.70
939;DHT22;456;53.584;9.968;2022-08-19T13:39:31;20.20;49.70
939;DHT22;456;53.584;9.968;2022-08-19T13:41:58;20.30;50.90
939;DHT22;456;53.584;9.968;2022-08-19T13:44:26;20.20;50.30
939;DHT22;456;53.584;9.968;2022-08-19T13:46:55;20.30;49.90
939;DHT22;456;53.584;9.968;2022-08-19T13:49:24;20.30;51.40
939;DHT22;456;53.584;9.968;2022-08-19T13:51:50;20.30;49.20
939;DHT22;456;53.584;9.968;2022-08-19T13:54:15;20.30;50.80
939;DHT22;456;53.584;9.968;2022-08-19T13:56:43;20.20;49.90
939;DHT22;456;53.584;9.968;2022-08-19T13:59:08;20.30;49.90
939;DHT22;456;53.584;9.968;2022-08-19T14:01:34;20.30;50.80
939;DHT22;456;53.584;9.968;2022-08-19T14:04:00;20.30;49.00
939;DHT22;456;53.584;9.968;2022-08-19T14:06:26;20.30;50.70
939;DHT22;456;53.584;9.968;2022-08-19T14:08:52;20.30;49.80
939;DHT22;456;53.584;9.968;2022-08-19T14:11:18;20.40;49.90
939;DHT22;456;53.584;9.968;2022-08-19T14:13:44;20.30;50.50
939;DHT22;456;53.584;9.968;2022-08-19T14:16:12;20.30;48.80
939;DHT22;456;53.584;9.968;2022-08-19T14:18:38;20.40;50.70
939;DHT22;456;53.584;9.968;2022-08-19T14:21:05;20.30;49.30
939;DHT22;456;53.584;9.968;2022-08-19T14:23:32;20.40;49.90
939;DHT22;456;53.584;9.968;2022-08-19T14:26:15;20.30;50.00
939;DHT22;456;53.584;9.968;2022-08-19T14:28:41;20.40;48.90
939;DHT22;456;53.584;9.968;2022-08-19T14:31:11;20.30;50.70
939;DHT22;456;53.584;9.968;2022-08-19T14:33:38;20.30;48.70
939;DHT22;456;53.584;9.968;2022-08-19T14:36:04;20.40;50.10
939;DHT22;456;53.584;9.968;2022-08-19T14:38:30;20.30;49.40
939;DHT22;456;53.584;9.968;2022-08-19T14:43:34;20.30;50.20
939;DHT22;456;53.584;9.968;2022-08-19T14:46:00;20.40;48.40
939;DHT22;456;53.584;9.968;2022-08-19T14:48:25;20.40;50.30
939;DHT22;456;53.584;9.968;2022-08-19T14:50:51;20.30;49.00
939;DHT22;456;53.584;9.968;2022-08-19T14:53:17;20.40;49.40
939;DHT22;456;53.584;9.968;2022-08-19T14:55:44;20.30;50.00
939;DHT22;456;53.584;9.968;2022-08-19T14:58:11;20.40;48.30
939;DHT22;456;53.584;9.968;2022-08-19T15:00:37;20.40;50.20
939;DHT22;456;53.584;9.968;2022-08-19T15:03:03;20.30;48.90
939;DHT22;456;53.584;9.968;2022-08-19T15:05:28;20.40;49.50
939;DHT22;456;53.584;9.968;2022-08-19T15:07:54;20.40;49.50
939;DHT22;456;53.584;9.968;2022-08-19T15:10:22;20.40;47.90
939;DHT22;456;53.584;9.968;2022-08-19T15:12:49;20.40;50.00
939;DHT22;456;53.584;9.968;2022-08-19T15:15:15;20.40;48.40
939;DHT22;456;53.584;9.968;2022-08-19T15:17:43;20.40;49.20
939;DHT22;456;53.584;9.968;2022-08-19T15:20:10;20.30;49.20
939;DHT22;456;53.584;9.968;2022-08-19T15:22:37;20.40;48.30
939;DHT22;456;53.584;9.968;2022-08-19T15:25:04;20.40;50.10
939;DHT22;456;53.584;9.968;2022-08-19T15:27:30;20.40;48.10
939;DHT22;456;53.584;9.968;2022-08-19T15:29:56;20.40;49.30
939;DHT22;456;53.584;9.968;2022-08-19T15:32:22;20.40;48.70
939;DHT22;456;53.584;9.968;2022-08-19T15:34:48;20.40;48.10
939;DHT22;456;53.584;9.968;2022-08-19T15:37:14;20.40;49.90
939;DHT22;456;53.584;9.968;2022-08-19T15:39:40;20.40;47.90
939;DHT22;456;53.584;9.968;2022-08-19T15:42:05;20.40;49.20
939;DHT22;456;53.584;9.968;2022-08-19T15:44:32;20.40;48.30
939;DHT22;456;53.584;9.968;2022-08-19T15:46:58;20.40;48.10
939;DHT22;456;53.584;9.968;2022-08-19T15:49:24;20.40;49.50
939;DHT22;456;53.584;9.968;2022-08-19T15:51:50;20.40;47.90
939;DHT22;456;53.584;9.968;2022-08-19T15:54:19;20.40;49.10
939;DHT22;456;53.584;9.968;2022-08-19T15:56:47;20.40;48.10
939;DHT22;456;53.584;9.968;2022-08-19T15:59:33;20.40;48.30
939;DHT22;456;53.584;9.968;2022-08-19T16:02:19;20.40;48.50
939;DHT22;456;53.584;9.968;2022-08-19T16:05:06;20.40;47.90
939;DHT22;456;53.584;9.968;2022-08-19T16:07:51;20.40;49.00
939;DHT22;456;53.584;9.968;2022-08-19T16:10:17;20.40;47.40
939;DHT22;456;53.584;9.968;2022-08-19T16:12:43;20.40;49.00
939;DHT22;456;53.584;9.968;2022-08-19T16:15:09;20.40;48.10
939;DHT22;456;53.584;9.968;2022-08-19T16:17:35;20.40;48.30
939;DHT22;456;53.584;9.968;2022-08-19T16:20:03;20.40;48.20
939;DHT22;456;53.584;9.968;2022-08-19T16:22:30;20.40;47.30
939;DHT22;456;53.584;9.968;2022-08-19T16:24:57;20.40;49.00
939;DHT22;456;53.584;9.968;2022-08-19T16:27:23;20.40;47.60
939;DHT22;456;53.584;9.968;2022-08-19T16:29:49;20.50;48.40
939;DHT22;456;53.584;9.968;2022-08-19T16:32:14;20.40;48.00
939;DHT22;456;53.584;9.968;2022-08-19T16:34:44;20.50;47.60
939;DHT22;456;53.584;9.968;2022-08-19T16:37:10;20.50;49.00
939;DHT22;456;53.584;9.968;2022-08-19T16:39:36;20.40;47.20
939;DHT22;456;53.584;9.968;2022-08-19T16:42:02;20.50;48.20
939;DHT22;456;53.584;9.968;2022-08-19T16:44:29;20.40;47.90
939;DHT22;456;53.584;9.968;2022-08-19T16:46:54;20.40;48.00
939;DHT22;456;53.584;9.968;2022-08-19T16:49:20;20.40;48.80
939;DHT22;456;53.584;9.968;2022-08-19T16:51:46;20.40;47.00
939;DHT22;456;53.584;9.968;2022-08-19T16:54:13;20.50;48.50